Portageville, New York
Current Conditions -  °F | °C
As of 11:54 PM on Sunday 19 Oct 2014 (Local Time) from KDSV Reporting Station
Clear Clear  
Wind Chill: 27°   Ceiling: Unl
Heat Index: 34°   Visibility: 10mi
Dew Point: 31°   Wind: 9mph
Humidity: 89%   Direction: 140°SE
Pressure: 30.05"   Gusts: NA
Location:  42.57°N, 78.04°W
Report Text: KDSV 200354Z AUTO 14008KT 10SM CLR 01/M01 A3005 RMK AO2 SLP188 T00111006
Loading
Personal Weather Stations






























Interactive Weather Map
Tropical Storm Tracking
New forecast layout! Learn more

10-Day Weather Forecast

Advertisements
Track Severe Weather on mobile